Time;durP1;ratioP1;P1;durP2;ratioP2;P2;SDS_P1;SDS_P2;PMS_P1;PMS_P2;Temp;Humidity;BMP_temperature;BMP_pressure;BME280_temperature;BME280_humidity;BME280_pressure;Samples;Min_cycle;Max_cycle;Signal;HPM_P1;HPM_P2
2023/09/05 00:01:53;;;;;;;;;;;;;;;21.71;47.13;101931.13;4970806;28;114741;-66
2023/09/05 00:04:20;;;;;;;;;;;;;;;21.71;47.02;101931.13;4969892;28;114059;-66
2023/09/05 00:06:47;;;;;;;;;;;;;;;21.70;47.02;101921.28;4968286;28;125300;-65
2023/09/05 00:09:17;;;;;;;;;;;;;;;21.69;47.01;101916.88;4967053;28;124052;-66
2023/09/05 00:11:45;;;;;;;;;;;;;;;21.68;47.06;101921.44;4970962;28;114571;-66
2023/09/05 00:14:12;;;;;;;;;;;;;;;21.66;47.08;101922.50;4967664;28;113803;-66
2023/09/05 00:16:39;;;;;;;;;;;;;;;21.64;46.98;101919.06;4965830;28;125707;-66
2023/09/05 00:19:06;;;;;;;;;;;;;;;21.62;47.10;101921.03;4951541;28;123250;-66
2023/09/05 00:21:33;;;;;;;;;;;;;;;21.61;47.04;101924.72;4970166;28;115461;-66
2023/09/05 00:24:19;;;;;;;;;;;;;;;21.58;47.12;101921.22;4969819;28;114627;-66
2023/09/05 00:26:46;;;;;;;;;;;;;;;21.55;47.10;101921.47;4970144;28;125266;-65
2023/09/05 00:29:13;;;;;;;;;;;;;;;21.54;47.04;101919.75;4968332;28;124707;-66
2023/09/05 00:31:40;;;;;;;;;;;;;;;21.52;47.13;101927.09;4970150;28;113611;-65
2023/09/05 00:34:07;;;;;;;;;;;;;;;21.51;47.17;101925.38;4969735;28;113938;-66
2023/09/05 00:36:34;;;;;;;;;;;;;;;21.50;47.13;101923.66;4969387;28;124357;-66
2023/09/05 00:39:02;;;;;;;;;;;;;;;21.49;47.09;101934.53;4970086;28;123164;-66
2023/09/05 00:41:29;;;;;;;;;;;;;;;21.47;47.01;101937.34;4975555;28;114154;-66
2023/09/05 00:43:56;;;;;;;;;;;;;;;21.46;47.13;101943.72;4970964;28;113120;-65
2023/09/05 00:46:24;;;;;;;;;;;;;;;21.44;47.07;101940.28;4973677;28;124508;-65
2023/09/05 00:48:52;;;;;;;;;;;;;;;21.40;47.18;101944.16;4968815;28;124231;-66
2023/09/05 00:51:22;;;;;;;;;;;;;;;21.37;47.17;101944.38;4973472;28;114784;-66
2023/09/05 00:53:50;;;;;;;;;;;;;;;21.32;47.13;101951.91;4968844;28;113090;-66
2023/09/05 00:56:17;;;;;;;;;;;;;;;21.29;47.11;101954.84;4969682;28;124327;-66
2023/09/05 00:58:44;;;;;;;;;;;;;;;21.24;47.05;101948.94;4974818;28;124340;-66
2023/09/05 01:01:11;;;;;;;;;;;;;;;21.19;47.08;101946.56;4970461;28;114444;-66
2023/09/05 01:03:38;;;;;;;;;;;;;;;21.14;47.11;101948.75;4968795;28;114244;-66
2023/09/05 01:06:07;;;;;;;;;;;;;;;21.10;47.16;101948.09;4969359;28;124696;-66
2023/09/05 01:08:41;;;;;;;;;;;;;;;21.05;47.23;101950.25;4963480;28;123245;-66
2023/09/05 01:11:08;;;;;;;;;;;;;;;21.02;47.15;101961.28;4952277;28;114748;-66
2023/09/05 01:13:36;;;;;;;;;;;;;;;20.97;47.32;101963.44;4968521;28;115260;-66
2023/09/05 01:16:03;;;;;;;;;;;;;;;20.93;47.31;101956.53;4969967;28;125224;-66
2023/09/05 01:18:34;;;;;;;;;;;;;;;20.88;47.36;101958.69;4966795;28;124959;-66
2023/09/05 01:21:04;;;;;;;;;;;;;;;20.85;47.31;101964.28;4969190;28;114870;-66
2023/09/05 01:23:37;;;;;;;;;;;;;;;20.79;47.40;101950.31;4971315;28;113516;-66
2023/09/05 01:26:05;;;;;;;;;;;;;;;20.76;47.48;101953.19;4968682;28;128024;-66
2023/09/05 01:28:35;;;;;;;;;;;;;;;20.73;47.48;101950.72;4968865;28;124615;-66
2023/09/05 01:31:02;;;;;;;;;;;;;;;20.70;47.32;101944.69;4970051;28;115284;-65
2023/09/05 01:33:30;;;;;;;;;;;;;;;20.66;47.47;101952.09;4970703;28;114312;-66
2023/09/05 01:35:57;;;;;;;;;;;;;;;20.61;47.45;101951.59;4969417;28;123067;-65
2023/09/05 01:38:24;;;;;;;;;;;;;;;20.58;47.59;101946.38;4971943;28;124919;-65
2023/09/05 01:40:51;;;;;;;;;;;;;;;20.53;47.47;101943.13;4972112;28;114988;-65
2023/09/05 01:43:18;;;;;;;;;;;;;;;20.50;47.48;101943.38;4953883;28;113720;-65
2023/09/05 01:45:45;;;;;;;;;;;;;;;20.43;47.53;101932.16;4970818;28;124950;-65
2023/09/05 01:48:12;;;;;;;;;;;;;;;20.37;47.62;101925.38;4968700;28;124327;-65
2023/09/05 01:50:39;;;;;;;;;;;;;;;20.34;47.59;101933.69;4979698;28;114932;-65
2023/09/05 01:53:06;;;;;;;;;;;;;;;20.29;47.74;101922.38;4956587;28;112768;-66
2023/09/05 01:55:33;;;;;;;;;;;;;;;20.27;47.78;101927.00;4971410;28;124509;-65
2023/09/05 01:58:00;;;;;;;;;;;;;;;20.23;47.85;101936.25;4955440;28;122622;-65
2023/09/05 02:00:27;;;;;;;;;;;;;;;20.22;47.86;101934.50;4972280;28;115362;-65
2023/09/05 02:02:55;;;;;;;;;;;;;;;20.22;47.86;101937.19;4972052;28;113937;-65
2023/09/05 02:05:22;;;;;;;;;;;;;;;20.23;48.00;101936.25;4972869;28;124503;-65
2023/09/05 02:07:49;;;;;;;;;;;;;;;20.23;48.00;101936.25;4955257;28;123415;-65
2023/09/05 02:10:16;;;;;;;;;;;;;;;20.21;47.95;101943.53;4971882;28;113669;-65
2023/09/05 02:12:44;;;;;;;;;;;;;;;20.21;47.98;101938.16;4955939;28;112721;-65
2023/09/05 02:15:11;;;;;;;;;;;;;;;20.19;47.93;101934.69;4954842;28;123571;-65
2023/09/05 02:17:38;;;;;;;;;;;;;;;20.19;47.90;101932.00;4969120;28;124228;-65
2023/09/05 02:20:06;;;;;;;;;;;;;;;20.18;48.02;101933.00;4969667;28;114647;-65
2023/09/05 02:22:33;;;;;;;;;;;;;;;20.18;48.01;101933.00;4971328;28;114135;-65
2023/09/05 02:25:00;;;;;;;;;;;;;;;20.17;47.97;101931.25;4971253;28;124011;-65
2023/09/05 02:27:28;;;;;;;;;;;;;;;20.17;48.05;101925.88;4972182;28;125558;-65
2023/09/05 02:30:01;;;;;;;;;;;;;;;20.16;48.03;101935.78;4970793;28;114330;-65
2023/09/05 02:32:29;;;;;;;;;;;;;;;20.16;47.85;101937.63;4966609;28;112554;-65
2023/09/05 02:34:56;;;;;;;;;;;;;;;20.13;48.03;101935.97;4970349;28;124418;-65
2023/09/05 02:37:24;;;;;;;;;;;;;;;20.12;47.92;101939.66;4969674;28;122942;-65
2023/09/05 02:39:51;;;;;;;;;;;;;;;20.11;48.13;101937.06;4955505;28;114600;-65
2023/09/05 02:42:18;;;;;;;;;;;;;;;20.10;48.00;101935.31;4971701;28;113197;-65
2023/09/05 02:44:45;;;;;;;;;;;;;;;20.08;48.06;101931.88;4972818;28;124756;-65
2023/09/05 02:47:12;;;;;;;;;;;;;;;20.05;48.10;101937.50;4969941;28;124185;-65
2023/09/05 02:49:39;;;;;;;;;;;;;;;20.02;48.13;101938.53;4959285;28;115098;-65
2023/09/05 02:52:07;;;;;;;;;;;;;;;20.00;48.13;101935.97;4974659;28;115070;-65
2023/09/05 02:54:37;;;;;;;;;;;;;;;20.00;48.21;101941.34;4971168;28;123429;-65
2023/09/05 02:57:04;;;;;;;;;;;;;;;19.99;48.24;101942.31;4967938;28;124038;-66
2023/09/05 02:59:31;;;;;;;;;;;;;;;20.01;48.24;101942.22;4971066;28;114605;-65
2023/09/05 03:01:58;;;;;;;;;;;;;;;19.99;48.10;101934.25;4970564;28;112558;-65
2023/09/05 03:04:26;;;;;;;;;;;;;;;19.98;48.17;101927.13;4963139;28;123480;-65
2023/09/05 03:06:53;;;;;;;;;;;;;;;19.96;48.17;101929.06;4968330;28;124568;-65
2023/09/05 03:09:20;;;;;;;;;;;;;;;19.96;48.17;101920.13;4955641;28;114915;-66
2023/09/05 03:11:47;;;;;;;;;;;;;;;19.94;48.09;101922.94;4971350;28;114034;-65
2023/09/05 03:14:14;;;;;;;;;;;;;;;19.91;48.26;101924.97;4953367;28;124333;-66
2023/09/05 03:16:41;;;;;;;;;;;;;;;19.88;48.12;101920.66;4964471;28;125152;-65
2023/09/05 03:19:11;;;;;;;;;;;;;;;19.86;48.26;101927.97;4954918;28;112959;-66
2023/09/05 03:21:38;;;;;;;;;;;;;;;19.86;48.30;101925.28;4954902;28;112906;-65
2023/09/05 03:24:05;;;;;;;;;;;;;;;19.86;48.29;101914.53;4968759;28;123021;-65
2023/09/05 03:26:32;;;;;;;;;;;;;;;19.86;48.33;101919.91;4953961;28;123632;-65
2023/09/05 03:29:00;;;;;;;;;;;;;;;19.86;48.41;101917.22;4969736;28;114593;-65
2023/09/05 03:31:30;;;;;;;;;;;;;;;19.87;48.19;101913.53;4971530;28;114098;-66
2023/09/05 03:33:57;;;;;;;;;;;;;;;19.84;48.30;101913.78;4969584;28;124233;-66
2023/09/05 03:36:26;;;;;;;;;;;;;;;19.83;48.41;101914.72;4953950;28;122481;-66
2023/09/05 03:38:53;;;;;;;;;;;;;;;19.81;48.36;101912.13;4969042;28;115761;-66
2023/09/05 03:41:20;;;;;;;;;;;;;;;19.79;48.44;101915.91;4970955;28;114654;-66
2023/09/05 03:43:47;;;;;;;;;;;;;;;19.77;48.47;101901.69;4969014;28;124215;-66
2023/09/05 03:46:14;;;;;;;;;;;;;;;19.75;48.33;101909.00;4971043;28;122907;-66
2023/09/05 03:48:41;;;;;;;;;;;;;;;19.73;48.46;101910.94;4971954;28;115121;-66
2023/09/05 03:51:09;;;;;;;;;;;;;;;19.71;48.55;101908.31;4953464;28;113409;-66
2023/09/05 03:53:36;;;;;;;;;;;;;;;19.70;48.44;101905.72;4968863;28;124999;-67
2023/09/05 03:56:05;;;;;;;;;;;;;;;19.69;48.43;101909.41;4969458;28;123796;-66
2023/09/05 03:58:32;;;;;;;;;;;;;;;19.68;48.51;101902.28;4953528;28;113461;-65
2023/09/05 04:01:02;;;;;;;;;;;;;;;19.67;48.40;101911.31;4970104;28;113925;-65
2023/09/05 04:03:33;;;;;;;;;;;;;;;19.66;48.61;101913.13;4970532;28;124487;-65
2023/09/05 04:06:00;;;;;;;;;;;;;;;19.64;48.58;101913.22;4950037;28;123106;-66
2023/09/05 04:08:28;;;;;;;;;;;;;;;19.65;48.58;101912.28;4970488;28;113683;-65
2023/09/05 04:10:56;;;;;;;;;;;;;;;19.63;48.56;101911.50;4968109;28;114022;-65
2023/09/05 04:13:24;;;;;;;;;;;;;;;19.62;48.53;101909.78;4968204;28;124776;-65
2023/09/05 04:15:52;;;;;;;;;;;;;;;19.62;48.60;101909.78;4968485;28;122298;-65
2023/09/05 04:18:19;;;;;;;;;;;;;;;19.61;48.66;101907.22;4965202;28;114397;-66
2023/09/05 04:20:46;;;;;;;;;;;;;;;19.60;48.71;101900.97;4971690;28;113733;-66
2023/09/05 04:23:13;;;;;;;;;;;;;;;19.60;48.55;101900.97;4968367;28;124038;-65
2023/09/05 04:25:41;;;;;;;;;;;;;;;19.57;48.52;101895.81;4969834;28;124285;-66
2023/09/05 04:28:08;;;;;;;;;;;;;;;19.54;48.61;101896.00;4952776;28;115069;-66
2023/09/05 04:30:35;;;;;;;;;;;;;;;19.50;48.61;101897.16;4974319;28;113692;-65
2023/09/05 04:33:03;;;;;;;;;;;;;;;19.47;48.58;101905.41;4970902;28;125073;-65
2023/09/05 04:35:30;;;;;;;;;;;;;;;19.43;48.59;101903.91;4970261;28;123773;-65
2023/09/05 04:37:58;;;;;;;;;;;;;;;19.40;48.70;101904.09;4965831;28;113955;-66
2023/09/05 04:40:25;;;;;;;;;;;;;;;19.40;48.71;101898.72;4969123;28;114270;-66
2023/09/05 04:42:52;;;;;;;;;;;;;;;19.40;48.70;101899.59;4965978;28;123458;-66
2023/09/05 04:45:19;;;;;;;;;;;;;;;19.39;48.73;101897.00;4967921;28;125529;-66
2023/09/05 04:47:46;;;;;;;;;;;;;;;19.38;48.88;101898.84;4964160;28;114553;-66
2023/09/05 04:50:13;;;;;;;;;;;;;;;19.36;48.73;101897.19;4974851;28;113839;-66
2023/09/05 04:52:40;;;;;;;;;;;;;;;19.35;48.79;101890.97;4966631;28;124965;-66
2023/09/05 04:55:07;;;;;;;;;;;;;;;19.33;48.88;101898.28;4967373;28;124687;-66
2023/09/05 04:57:34;;;;;;;;;;;;;;;19.32;48.92;101898.38;4968068;28;115394;-66
2023/09/05 05:00:01;;;;;;;;;;;;;;;19.31;48.88;101900.19;4962630;28;114095;-66
2023/09/05 05:02:28;;;;;;;;;;;;;;;19.31;48.87;101893.94;4970537;28;124335;-65
2023/09/05 05:04:56;;;;;;;;;;;;;;;19.29;49.04;101890.50;4968903;28;125538;-66
2023/09/05 05:07:23;;;;;;;;;;;;;;;19.30;48.87;101897.63;4967818;28;114064;-66
2023/09/05 05:09:50;;;;;;;;;;;;;;;19.30;48.98;101901.16;4970991;28;114645;-66
2023/09/05 05:12:19;;;;;;;;;;;;;;;19.32;49.14;101895.69;4972305;28;123237;-65
2023/09/05 05:14:46;;;;;;;;;;;;;;;19.33;49.08;101897.41;4971706;28;124052;-65
2023/09/05 05:17:13;;;;;;;;;;;;;;;19.35;49.08;101890.13;4965111;28;114353;-65
2023/09/05 05:19:40;;;;;;;;;;;;;;;19.35;49.08;101890.97;4961446;28;114920;-65
2023/09/05 05:22:07;;;;;;;;;;;;;;;19.38;49.15;101889.91;4955805;28;123429;-65
2023/09/05 05:24:34;;;;;;;;;;;;;;;19.42;49.28;101894.09;4971717;28;124403;-65
2023/09/05 05:27:01;;;;;;;;;;;;;;;19.45;49.31;101891.22;4973834;28;114875;-65
2023/09/05 05:29:32;;;;;;;;;;;;;;;19.50;49.42;101899.00;4976802;28;113893;-65
2023/09/05 05:32:00;;;;;;;;;;;;;;;19.53;49.28;101899.63;4969693;28;124967;-65
2023/09/05 05:34:28;;;;;;;;;;;;;;;19.58;49.12;101907.41;4951024;28;124004;-65
2023/09/05 05:36:56;;;;;;;;;;;;;;;19.61;49.21;101905.38;4972865;28;114346;-65
2023/09/05 05:39:25;;;;;;;;;;;;;;;19.65;49.25;101908.72;4973923;28;114174;-64
2023/09/05 05:41:52;;;;;;;;;;;;;;;19.69;49.17;101906.69;4972410;28;124250;-66
2023/09/05 05:44:19;;;;;;;;;;;;;;;19.72;49.30;101903.78;4971660;28;125046;-65
2023/09/05 05:46:46;;;;;;;;;;;;;;;19.75;49.32;101909.00;4971824;28;114448;-65
2023/09/05 05:49:13;;;;;;;;;;;;;;;19.80;49.31;101912.25;4971572;28;114060;-65
2023/09/05 05:51:40;;;;;;;;;;;;;;;19.84;49.29;101897.63;4973164;28;124238;-65
2023/09/05 05:54:07;;;;;;;;;;;;;;;19.87;49.24;101908.16;4968186;28;124279;-65
2023/09/05 05:56:34;;;;;;;;;;;;;;;19.92;49.27;101906.03;4971073;28;114974;-65
2023/09/05 05:59:02;;;;;;;;;;;;;;;19.96;49.45;101907.53;4960987;28;113990;-65
2023/09/05 06:01:29;;;;;;;;;;;;;;;20.06;49.44;101906.94;4972642;28;124305;-66
2023/09/05 06:03:56;;;;;;;;;;;;;;;20.12;49.43;101901.16;4966137;28;124938;-65
2023/09/05 06:06:24;;;;;;;;;;;;;;;20.19;49.39;101891.66;4954705;28;115334;-65
2023/09/05 06:08:51;;;;;;;;;;;;;;;20.27;49.34;101894.72;4971000;28;114324;-65
2023/09/05 06:11:18;;;;;;;;;;;;;;;20.34;49.29;101904.06;4971928;28;124089;-65
2023/09/05 06:13:45;;;;;;;;;;;;;;;20.42;49.42;101896.31;4969381;28;124547;-66
2023/09/05 06:16:12;;;;;;;;;;;;;;;20.53;49.48;101900.06;4970851;28;114641;-66
2023/09/05 06:18:39;;;;;;;;;;;;;;;20.64;49.45;101913.66;4957200;28;113899;-65
2023/09/05 06:21:06;;;;;;;;;;;;;;;20.75;49.41;101911.06;4958076;28;124412;-66
2023/09/05 06:23:35;;;;;;;;;;;;;;;20.87;49.44;101903.09;4970670;28;125357;-66
2023/09/05 06:26:02;;;;;;;;;;;;;;;20.98;49.46;101905.88;4961730;28;114743;-66
2023/09/05 06:28:29;;;;;;;;;;;;;;;21.11;49.45;101909.41;4967202;28;113757;-66
2023/09/05 06:30:57;;;;;;;;;;;;;;;21.26;49.50;101909.25;4966793;28;123983;-66
2023/09/05 06:33:24;;;;;;;;;;;;;;;21.40;49.40;101898.34;4969598;28;125036;-66
2023/09/05 06:35:51;;;;;;;;;;;;;;;21.53;49.41;101901.88;4968194;28;115653;-66
2023/09/05 06:38:21;;;;;;;;;;;;;;;21.69;49.42;101906.09;4959747;28;114210;-64
2023/09/05 06:40:51;;;;;;;;;;;;;;;21.84;49.46;101904.94;4954456;28;123438;-64
2023/09/05 06:43:28;;;;;;;;;;;;;;;22.02;49.50;101901.81;4966416;28;124081;-64
2023/09/05 06:46:08;;;;;;;;;;;;;;;22.19;49.42;101904.09;4949660;28;115401;-65
2023/09/05 06:48:36;;;;;;;;;;;;;;;22.35;49.38;101896.53;4974203;28;114125;-65
2023/09/05 06:51:28;;;;;;;;;;;;;;;22.51;49.30;101892.66;4973723;28;124281;-64
2023/09/05 06:53:55;;;;;;;;;;;;;;;22.69;49.37;101893.84;4959726;28;124271;-65
2023/09/05 06:56:22;;;;;;;;;;;;;;;22.84;49.23;101894.47;4966720;28;115325;-65
2023/09/05 06:58:49;;;;;;;;;;;;;;;23.00;49.26;101890.53;4966146;28;114473;-65
2023/09/05 07:01:16;;;;;;;;;;;;;;;23.16;49.28;101892.88;4967889;28;123845;-65
2023/09/05 07:03:43;;;;;;;;;;;;;;;23.32;49.24;101893.34;4969563;28;124263;-65
2023/09/05 07:06:10;;;;;;;;;;;;;;;23.47;49.00;101886.66;4976634;28;114762;-65
2023/09/05 07:08:37;;;;;;;;;;;;;;;23.63;48.99;101885.38;4946532;28;113708;-65
2023/09/05 07:11:04;;;;;;;;;;;;;;;23.76;48.88;101883.34;4969181;28;125393;-65
2023/09/05 07:13:31;;;;;;;;;;;;;;;23.88;48.83;101885.06;4964876;28;124102;-65
2023/09/05 07:15:58;;;;;;;;;;;;;;;24.01;48.78;101878.59;4969658;28;114564;-64
2023/09/05 07:18:26;;;;;;;;;;;;;;;24.13;48.90;101877.53;4968526;28;114038;-65
2023/09/05 07:20:54;;;;;;;;;;;;;;;24.26;48.93;101875.47;4963012;28;124395;-65
2023/09/05 07:23:21;;;;;;;;;;;;;;;24.41;48.70;101875.13;4969455;28;123928;-65
2023/09/05 07:25:49;;;;;;;;;;;;;;;24.56;48.63;101873.78;4968618;28;114434;-65
2023/09/05 07:28:16;;;;;;;;;;;;;;;24.70;48.77;101879.88;4954201;28;113872;-65
2023/09/05 07:30:43;;;;;;;;;;;;;;;24.81;48.84;101877.91;4954789;28;123074;-65
2023/09/05 07:33:11;;;;;;;;;;;;;;;24.93;48.38;101881.38;4965066;28;123737;-65
2023/09/05 07:35:38;;;;;;;;;;;;;;;25.02;48.52;101875.13;4960963;28;114408;-65
2023/09/05 07:38:06;;;;;;;;;;;;;;;25.13;48.25;101881.41;4968409;28;112699;-65
2023/09/05 07:40:32;;;;;;;;;;;;;;;25.23;48.14;101883.19;4970140;28;123911;-65
2023/09/05 07:43:00;;;;;;;;;;;;;;;25.33;48.30;101883.19;4969433;28;123888;-65
2023/09/05 07:45:27;;;;;;;;;;;;;;;25.41;48.02;101880.66;4970032;28;115003;-65
2023/09/05 07:47:54;;;;;;;;;;;;;;;25.51;48.13;101879.81;4969675;28;115359;-65
2023/09/05 07:50:22;;;;;;;;;;;;;;;25.60;48.19;101878.97;4973318;28;126705;-65
2023/09/05 07:52:49;;;;;;;;;;;;;;;25.69;47.96;101878.06;4953413;28;122890;-65
2023/09/05 07:55:16;;;;;;;;;;;;;;;25.78;48.07;101882.66;4951610;28;115132;-65
2023/09/05 07:57:44;;;;;;;;;;;;;;;25.88;47.96;101876.34;4968661;28;113684;-65
2023/09/05 08:00:14;;;;;;;;;;;;;;;25.95;47.92;101882.97;4968002;28;123432;-65
2023/09/05 08:02:42;;;;;;;;;;;;;;;26.05;47.71;101874.78;4964398;28;124369;-65
2023/09/05 08:05:09;;;;;;;;;;;;;;;26.12;47.49;101867.78;4966557;28;114996;-65
2023/09/05 08:07:37;;;;;;;;;;;;;;;26.21;47.75;101878.63;4968189;28;114231;-65
2023/09/05 08:10:06;;;;;;;;;;;;;;;26.29;47.53;101871.59;4966375;28;124849;-65
2023/09/05 08:12:33;;;;;;;;;;;;;;;26.39;47.72;101873.31;4975521;28;123999;-65
2023/09/05 08:15:00;;;;;;;;;;;;;;;26.50;47.53;101871.38;4964190;28;114561;-65
2023/09/05 08:17:27;;;;;;;;;;;;;;;26.60;47.14;101873.09;4963281;28;115188;-65
2023/09/05 08:19:54;;;;;;;;;;;;;;;26.66;47.04;101870.81;4972971;28;124475;-65
2023/09/05 08:22:21;;;;;;;;;;;;;;;26.72;47.17;101876.47;4971012;28;125062;-65
2023/09/05 08:24:50;;;;;;;;;;;;;;;26.82;46.99;101876.44;4964321;28;115074;-65
2023/09/05 08:27:17;;;;;;;;;;;;;;;26.89;47.08;101866.66;4966524;28;113779;-65
2023/09/05 08:29:44;;;;;;;;;;;;;;;26.98;47.06;101865.75;4968908;28;124257;-65
2023/09/05 08:32:11;;;;;;;;;;;;;;;27.07;47.25;101874.00;4967775;28;123981;-65
2023/09/05 08:34:40;;;;;;;;;;;;;;;27.17;46.91;101869.38;4967994;28;115569;-65
2023/09/05 08:37:07;;;;;;;;;;;;;;;27.26;47.04;101868.50;4968171;28;115540;-65
2023/09/05 08:39:34;;;;;;;;;;;;;;;27.33;46.82;101869.59;4968003;28;125968;-65
2023/09/05 08:42:06;;;;;;;;;;;;;;;27.38;46.96;101878.13;4970921;28;124513;-65
2023/09/05 08:44:42;;;;;;;;;;;;;;;27.50;47.04;101875.16;4937361;28;113320;-65
2023/09/05 08:47:09;;;;;;;;;;;;;;;27.60;46.90;101875.97;4967632;28;113718;-65
2023/09/05 08:49:37;;;;;;;;;;;;;;;27.69;46.90;101885.94;4970669;28;124660;-65
2023/09/05 08:52:05;;;;;;;;;;;;;;;27.80;46.76;101882.09;4951455;28;124478;-65
2023/09/05 08:54:32;;;;;;;;;;;;;;;27.89;46.74;101891.22;4969637;28;114657;-65
2023/09/05 08:57:02;;;;;;;;;;;;;;;27.99;46.72;101886.56;4971060;28;113931;-65
2023/09/05 08:59:29;;;;;;;;;;;;;;;28.07;46.77;101883.88;4968832;28;123545;-65
2023/09/05 09:01:58;;;;;;;;;;;;;;;28.15;46.73;101886.66;4969366;28;123075;-65
2023/09/05 09:04:26;;;;;;;;;;;;;;;28.23;46.45;101887.72;4967577;28;115267;-65
2023/09/05 09:06:55;;;;;;;;;;;;;;;28.30;46.54;101886.06;4968508;28;114802;-65
2023/09/05 09:09:35;;;;;;;;;;;;;;;28.38;46.31;101888.84;4948942;28;124404;-65
2023/09/05 09:12:03;;;;;;;;;;;;;;;28.44;46.24;101881.91;4952883;28;124390;-65
2023/09/05 09:14:30;;;;;;;;;;;;;;;28.50;46.03;101882.13;4949270;28;114394;-65
2023/09/05 09:17:04;;;;;;;;;;;;;;;28.56;46.08;101882.50;4951918;28;113709;-65
2023/09/05 09:19:32;;;;;;;;;;;;;;;28.62;45.98;101876.41;4951952;28;124212;-65
2023/09/05 09:22:01;;;;;;;;;;;;;;;28.69;45.94;101872.03;4953332;28;124266;-65
2023/09/05 09:24:32;;;;;;;;;;;;;;;28.76;45.96;101873.06;4949656;28;115298;-65
2023/09/05 09:27:03;;;;;;;;;;;;;;;28.82;46.03;101883.31;4962312;28;114781;-65
2023/09/05 09:29:31;;;;;;;;;;;;;;;28.89;46.08;101867.16;4963627;28;125616;-65
2023/09/05 09:32:03;;;;;;;;;;;;;;;28.93;45.90;101869.41;4963402;28;124502;-65
2023/09/05 09:34:31;;;;;;;;;;;;;;;29.01;45.79;101875.88;4967035;28;114777;-65
2023/09/05 09:36:58;;;;;;;;;;;;;;;29.08;45.74;101872.34;4952564;28;112667;-66
2023/09/05 09:39:27;;;;;;;;;;;;;;;29.17;45.84;101873.22;4967327;28;124507;-66
2023/09/05 09:41:56;;;;;;;;;;;;;;;29.25;45.67;101867.81;4962221;28;124184;-65
2023/09/05 09:44:25;;;;;;;;;;;;;;;29.31;45.60;101875.31;4962029;28;114486;-65
2023/09/05 09:46:53;;;;;;;;;;;;;;;29.41;45.64;101874.31;4963149;28;114002;-65
2023/09/05 09:49:22;;;;;;;;;;;;;;;29.47;45.29;101879.09;4970938;28;125237;-66
2023/09/05 09:51:51;;;;;;;;;;;;;;;29.53;45.41;101870.22;4975907;28;124161;-65
2023/09/05 09:54:21;;;;;;;;;;;;;;;29.59;45.52;101868.69;4968197;28;114309;-65
2023/09/05 09:56:48;;;;;;;;;;;;;;;29.67;45.31;101866.81;4969515;28;113940;-66
2023/09/05 09:59:16;;;;;;;;;;;;;;;29.75;45.33;101867.91;4967396;28;124210;-66
2023/09/05 10:01:43;;;;;;;;;;;;;;;29.83;45.37;101870.59;4975237;28;124534;-66
2023/09/05 10:04:11;;;;;;;;;;;;;;;29.89;45.08;101875.38;4969882;28;113353;-66
2023/09/05 10:06:38;;;;;;;;;;;;;;;29.97;44.93;101872.66;4969841;28;113954;-65
2023/09/05 10:09:06;;;;;;;;;;;;;;;30.00;44.84;101866.84;4971462;28;124305;-66
2023/09/05 10:11:34;;;;;;;;;;;;;;;30.06;44.74;101870.75;4972868;28;124442;-66
2023/09/05 10:14:01;;;;;;;;;;;;;;;30.06;44.40;101877.09;4972753;28;115534;-66
2023/09/05 10:16:28;;;;;;;;;;;;;;;30.04;44.43;101868.19;4953690;28;115180;-65
2023/09/05 10:18:57;;;;;;;;;;;;;;;30.05;44.14;101864.44;4967809;28;125223;-65
2023/09/05 10:21:25;;;;;;;;;;;;;;;30.09;44.12;101871.25;4972291;28;124470;-65
2023/09/05 10:23:53;;;;;;;;;;;;;;;30.15;44.19;101874.34;4954832;28;113704;-65
2023/09/05 10:26:21;;;;;;;;;;;;;;;30.19;44.16;101870.22;4970068;28;113735;-65
2023/09/05 10:28:49;;;;;;;;;;;;;;;30.25;44.14;101869.53;4971075;28;124403;-65
2023/09/05 10:31:18;;;;;;;;;;;;;;;30.35;44.47;101870.22;4970939;28;124429;-65
2023/09/05 10:33:45;;;;;;;;;;;;;;;30.45;44.23;101865.41;4967363;28;114501;-65
2023/09/05 10:36:32;;;;;;;;;;;;;;;30.54;44.20;101862.66;4970708;28;113777;-65
2023/09/05 10:39:00;;;;;;;;;;;;;;;30.61;43.89;101858.16;4950417;28;124621;-65
2023/09/05 10:41:36;;;;;;;;;;;;;;;30.67;43.66;101852.00;4971364;28;124919;-66
2023/09/05 10:44:06;;;;;;;;;;;;;;;30.72;43.92;101860.50;4970650;28;114639;-66
2023/09/05 10:46:33;;;;;;;;;;;;;;;30.80;43.67;101859.66;4969108;28;113901;-66
2023/09/05 10:49:10;;;;;;;;;;;;;;;30.86;43.64;101858.94;4970511;28;124836;-65
2023/09/05 10:51:57;;;;;;;;;;;;;;;30.89;43.30;101860.44;4966629;28;124123;-66
2023/09/05 10:54:28;;;;;;;;;;;;;;;30.91;43.18;101852.94;4947852;28;113641;-65
2023/09/05 10:56:55;;;;;;;;;;;;;;;30.95;43.36;101843.34;4949749;28;113618;-66
2023/09/05 10:59:26;;;;;;;;;;;;;;;31.01;43.44;101842.66;4965804;28;124408;-66
2023/09/05 11:02:08;;;;;;;;;;;;;;;31.10;43.11;101841.56;4967941;28;123136;-66
2023/09/05 11:04:37;;;;;;;;;;;;;;;31.19;43.51;101840.50;4966853;28;115603;-66
2023/09/05 11:07:06;;;;;;;;;;;;;;;31.28;43.36;101843.16;4968802;28;115525;-67
2023/09/05 11:09:39;;;;;;;;;;;;;;;31.35;43.17;101844.13;4968606;28;124199;-66
2023/09/05 11:12:07;;;;;;;;;;;;;;;31.44;43.49;101843.03;4969041;28;124644;-66
2023/09/05 11:14:34;;;;;;;;;;;;;;;31.53;43.43;101841.09;4971508;28;114760;-66
2023/09/05 11:17:02;;;;;;;;;;;;;;;31.61;43.25;101841.91;4958704;28;113748;-67
2023/09/05 11:19:37;;;;;;;;;;;;;;;31.73;43.36;101846.94;4967068;28;124629;-67
2023/09/05 11:22:11;;;;;;;;;;;;;;;31.79;43.06;101848.94;4969972;28;124199;-67
2023/09/05 11:24:45;;;;;;;;;;;;;;;31.83;43.10;101842.03;4958362;28;114331;-67
2023/09/05 11:27:13;;;;;;;;;;;;;;;31.88;42.91;101845.09;4969943;28;113873;-66
2023/09/05 11:29:42;;;;;;;;;;;;;;;31.90;42.89;101832.03;4972767;28;124173;-66
2023/09/05 11:32:12;;;;;;;;;;;;;;;31.92;42.45;101840.94;4970301;28;124032;-67
2023/09/05 11:34:41;;;;;;;;;;;;;;;31.95;42.87;101834.25;4968177;28;114362;-67
2023/09/05 11:37:08;;;;;;;;;;;;;;;32.00;42.78;101834.50;4969834;28;113716;-67
2023/09/05 11:39:35;;;;;;;;;;;;;;;32.03;42.31;101825.13;4967539;28;124376;-66
2023/09/05 11:42:02;;;;;;;;;;;;;;;32.05;42.43;101828.53;4968478;28;124982;-66
2023/09/05 11:44:30;;;;;;;;;;;;;;;32.11;42.81;101833.25;4968339;28;115349;-66
2023/09/05 11:46:57;;;;;;;;;;;;;;;32.20;42.69;101832.13;4961089;28;114588;-66
2023/09/05 11:49:25;;;;;;;;;;;;;;;32.28;42.48;101829.28;4971566;28;124376;-67
2023/09/05 11:51:52;;;;;;;;;;;;;;;32.33;42.20;101831.47;4976430;28;124321;-67
2023/09/05 11:54:19;;;;;;;;;;;;;;;32.32;42.04;101829.75;4970430;28;115483;-66
2023/09/05 11:56:46;;;;;;;;;;;;;;;32.35;42.17;101835.72;4968301;28;113782;-66
2023/09/05 11:59:15;;;;;;;;;;;;;;;32.43;42.22;101826.53;4965485;28;124644;-66
2023/09/05 12:01:43;;;;;;;;;;;;;;;32.52;42.51;101841.00;4966798;28;124264;-66
2023/09/05 12:04:10;;;;;;;;;;;;;;;32.58;42.02;101837.53;4970242;28;115359;-67
2023/09/05 12:06:39;;;;;;;;;;;;;;;32.57;41.65;101833.09;4970677;28;97744;-66
2023/09/05 12:09:09;;;;;;;;;;;;;;;32.57;41.77;101827.59;4970944;28;124273;-66
2023/09/05 12:11:36;;;;;;;;;;;;;;;32.62;41.97;101829.75;4962232;28;124328;-66
2023/09/05 12:14:03;;;;;;;;;;;;;;;32.65;41.61;101822.00;4969154;28;114673;-66
2023/09/05 12:16:30;;;;;;;;;;;;;;;32.64;41.74;101820.28;4969611;28;113674;-66
2023/09/05 12:19:01;;;;;;;;;;;;;;;32.68;42.26;101818.88;4967925;28;124526;-66
2023/09/05 12:21:40;;;;;;;;;;;;;;;32.77;42.05;101812.22;4970819;28;124744;-66
2023/09/05 12:24:18;;;;;;;;;;;;;;;32.83;42.09;101804.28;4954144;28;114503;-67
2023/09/05 12:26:44;;;;;;;;;;;;;;;32.90;41.61;101799.72;4968711;28;113668;-66
2023/09/05 12:29:11;;;;;;;;;;;;;;;32.93;42.10;101794.69;4967645;28;124375;-66
2023/09/05 12:31:38;;;;;;;;;;;;;;;32.99;41.93;101793.06;4966892;28;124317;-66
2023/09/05 12:34:05;;;;;;;;;;;;;;;33.01;41.80;101793.72;4968766;28;114730;-66